Time;durP1;ratioP1;P1;durP2;ratioP2;P2;SDS_P1;SDS_P2;PMS_P1;PMS_P2;Temp;Humidity;BMP_temperature;BMP_pressure;BME280_temperature;BME280_humidity;BME280_pressure;Samples;Min_cycle;Max_cycle;Signal;HPM_P1;HPM_P2
2023/07/02 00:02:08;;;;;;;3.00;2.65;;;17.30;99.90;;;;;;4988149;28;20026;-82
2023/07/02 00:04:34;;;;;;;4.10;2.05;;;17.30;99.90;;;;;;4989991;28;20037;-80
2023/07/02 00:07:00;;;;;;;2.55;1.90;;;17.40;99.90;;;;;;4969190;28;20057;-80
2023/07/02 00:09:25;;;;;;;4.50;2.53;;;17.40;99.90;;;;;;4968200;28;20026;-80
2023/07/02 00:11:51;;;;;;;2.88;2.53;;;17.40;99.90;;;;;;4967709;28;20113;-80
2023/07/02 00:14:17;;;;;;;2.60;2.38;;;17.50;99.90;;;;;;4967729;28;20126;-80
2023/07/02 00:16:45;;;;;;;3.50;2.72;;;17.50;99.90;;;;;;4967482;28;20495;-81
2023/07/02 00:19:12;;;;;;;2.25;2.05;;;17.40;99.90;;;;;;4968972;28;20037;-80
2023/07/02 00:21:38;;;;;;;5.47;3.15;;;17.40;99.90;;;;;;4969129;28;20081;-82
2023/07/02 00:24:04;;;;;;;3.92;2.42;;;17.40;99.90;;;;;;4966654;28;20451;-79
2023/07/02 00:26:30;;;;;;;2.55;2.13;;;17.40;99.90;;;;;;4969020;28;20023;-81
2023/07/02 00:28:56;;;;;;;3.88;2.10;;;17.40;99.90;;;;;;4966214;28;20395;-80
2023/07/02 00:31:23;;;;;;;5.68;1.90;;;17.40;99.90;;;;;;4969078;28;20027;-80
2023/07/02 00:33:49;;;;;;;2.60;2.00;;;17.40;99.90;;;;;;4966013;28;20049;-80
2023/07/02 00:36:15;;;;;;;2.75;1.73;;;17.40;99.90;;;;;;4968041;28;20085;-81
2023/07/02 00:38:48;;;;;;;3.83;2.35;;;17.40;99.90;;;;;;4963688;28;20039;-80
2023/07/02 00:41:15;;;;;;;5.20;2.15;;;17.40;99.90;;;;;;4972282;28;20031;-83
2023/07/02 00:43:43;;;;;;;3.97;3.08;;;17.40;99.90;;;;;;4970773;28;20033;-81
2023/07/02 00:46:17;;;;;;;3.77;3.00;;;17.40;99.90;;;;;;4965426;28;20019;-81
2023/07/02 00:48:45;;;;;;;4.45;3.33;;;17.40;99.90;;;;;;4967525;28;20110;-81
2023/07/02 00:51:14;;;;;;;3.33;2.22;;;17.40;99.90;;;;;;4966783;28;20101;-79
2023/07/02 00:53:40;;;;;;;4.65;2.50;;;17.40;99.90;;;;;;4965438;28;20038;-81
2023/07/02 00:56:06;;;;;;;7.22;2.30;;;17.40;99.90;;;;;;4966583;28;20038;-81
2023/07/02 00:58:37;;;;;;;3.05;2.72;;;17.40;99.90;;;;;;4965529;28;20105;-80
2023/07/02 01:01:03;;;;;;;2.25;2.05;;;17.40;99.90;;;;;;4966677;28;20026;-79
2023/07/02 01:03:32;;;;;;;2.42;2.03;;;17.40;99.90;;;;;;4969005;28;20023;-81
2023/07/02 01:06:01;;;;;;;3.08;2.13;;;17.40;99.90;;;;;;4970566;28;20031;-80
2023/07/02 01:08:27;;;;;;;4.10;2.92;;;17.40;99.90;;;;;;4969036;28;20031;-80
2023/07/02 01:10:52;;;;;;;5.95;2.28;;;17.40;99.90;;;;;;4968966;28;20033;-78
2023/07/02 01:13:21;;;;;;;3.28;2.50;;;17.40;99.90;;;;;;4970274;28;20440;-80
2023/07/02 01:15:48;;;;;;;21.13;3.53;;;17.40;99.90;;;;;;4970590;28;20096;-79
2023/07/02 01:18:14;;;;;;;6.22;2.60;;;17.40;99.90;;;;;;4970379;28;20296;-79
2023/07/02 01:20:41;;;;;;;4.32;2.85;;;17.40;99.90;;;;;;4969225;28;20037;-79
2023/07/02 01:23:08;;;;;;;5.68;2.55;;;17.40;99.90;;;;;;4968943;28;20019;-79
2023/07/02 01:25:36;;;;;;;4.25;2.35;;;17.40;99.90;;;;;;4968738;28;20126;-80
2023/07/02 01:28:04;;;;;;;4.22;2.42;;;17.50;99.90;;;;;;4968878;28;20027;-80
2023/07/02 01:30:30;;;;;;;3.33;2.90;;;17.40;99.90;;;;;;4969251;28;20085;-81
2023/07/02 01:32:56;;;;;;;8.05;3.30;;;17.40;99.90;;;;;;4967469;28;20785;-79
2023/07/02 01:35:21;;;;;;;6.72;2.30;;;17.40;99.90;;;;;;4969841;28;20085;-80
2023/07/02 01:37:47;;;;;;;3.38;2.60;;;17.40;99.90;;;;;;4972025;28;20384;-79
2023/07/02 01:40:13;;;;;;;5.35;2.83;;;17.40;99.90;;;;;;4970598;28;20329;-80
2023/07/02 01:42:39;;;;;;;5.60;2.17;;;17.40;99.90;;;;;;4972146;28;20492;-78
2023/07/02 01:45:05;;;;;;;3.85;2.35;;;17.40;99.90;;;;;;4971729;28;20022;-80
2023/07/02 01:47:31;;;;;;;3.35;2.17;;;17.40;99.90;;;;;;4972271;28;20031;-79
2023/07/02 01:49:56;;;;;;;2.25;1.83;;;17.40;99.90;;;;;;4971070;28;20118;-79
2023/07/02 01:52:22;;;;;;;4.90;2.47;;;17.50;99.90;;;;;;4971499;28;20042;-80
2023/07/02 01:54:47;;;;;;;4.60;2.78;;;17.40;99.90;;;;;;4971910;28;20031;-77
2023/07/02 01:57:13;;;;;;;4.13;2.53;;;17.40;99.90;;;;;;4971581;28;20038;-77
2023/07/02 01:59:39;;;;;;;4.57;2.28;;;17.40;99.90;;;;;;4971000;28;20038;-77
2023/07/02 02:02:04;;;;;;;3.42;2.10;;;17.30;99.90;;;;;;4972903;28;20365;-77
2023/07/02 02:04:30;;;;;;;6.68;2.60;;;17.40;99.90;;;;;;4971782;28;20421;-80
2023/07/02 02:06:56;;;;;;;4.13;2.30;;;17.30;99.90;;;;;;4971622;28;20015;-79
2023/07/02 02:09:21;;;;;;;3.95;2.50;;;17.30;99.90;;;;;;4971949;28;20058;-81
2023/07/02 02:11:52;;;;;;;3.85;2.75;;;17.40;99.90;;;;;;4973297;28;20034;-80
2023/07/02 02:14:18;;;;;;;3.42;2.63;;;17.40;99.90;;;;;;4972420;28;20038;-79
2023/07/02 02:16:45;;;;;;;4.53;2.53;;;17.40;99.90;;;;;;4971261;28;20034;-79
2023/07/02 02:19:12;;;;;;;3.55;2.03;;;17.40;99.90;;;;;;4972616;28;20027;-80
2023/07/02 02:21:37;;;;;;;5.65;2.75;;;17.30;99.90;;;;;;4971282;28;20452;-78
2023/07/02 02:24:03;;;;;;;6.07;3.25;;;17.30;99.90;;;;;;4973086;28;20069;-77
2023/07/02 02:26:29;;;;;;;6.63;2.88;;;17.40;99.90;;;;;;4971719;28;20023;-80
2023/07/02 02:28:55;;;;;;;6.00;2.70;;;17.40;99.90;;;;;;4971198;28;20122;-80
2023/07/02 02:31:20;;;;;;;11.63;3.78;;;17.30;99.90;;;;;;4972840;28;20109;-77
2023/07/02 02:33:46;;;;;;;8.90;3.88;;;17.20;99.90;;;;;;4971803;28;20329;-77
2023/07/02 02:36:11;;;;;;;8.00;3.92;;;17.40;99.90;;;;;;4971513;28;20518;-78
2023/07/02 02:38:37;;;;;;;8.77;3.20;;;17.40;99.90;;;;;;4971412;28;20033;-80
2023/07/02 02:41:03;;;;;;;6.05;4.05;;;17.40;99.90;;;;;;4971488;28;20046;-81
2023/07/02 02:43:29;;;;;;;7.03;3.25;;;17.40;99.90;;;;;;4971036;28;20027;-80
2023/07/02 02:45:54;;;;;;;6.28;3.83;;;17.40;99.90;;;;;;4970600;28;20035;-77
2023/07/02 02:48:23;;;;;;;8.48;3.58;;;17.30;99.90;;;;;;4970944;28;20026;-77
2023/07/02 02:50:48;;;;;;;11.15;4.03;;;17.30;99.90;;;;;;4970305;28;20039;-78
2023/07/02 02:53:14;;;;;;;7.35;3.35;;;17.30;99.90;;;;;;4970144;28;20030;-78
2023/07/02 02:55:40;;;;;;;4.65;3.08;;;17.20;99.90;;;;;;4971816;28;20035;-77
2023/07/02 02:58:05;;;;;;;5.20;2.75;;;17.30;99.90;;;;;;4970322;28;20484;-78
2023/07/02 03:00:31;;;;;;;9.10;3.72;;;17.30;99.90;;;;;;4970399;28;20031;-77
2023/07/02 03:02:57;;;;;;;5.53;3.25;;;17.20;99.90;;;;;;4971777;28;20031;-76
2023/07/02 03:05:23;;;;;;;6.78;3.42;;;17.20;99.90;;;;;;4971010;28;20035;-77
2023/07/02 03:07:50;;;;;;;5.88;3.40;;;17.20;99.90;;;;;;4971056;28;20042;-79
2023/07/02 03:10:16;;;;;;;6.78;3.58;;;17.30;99.90;;;;;;4972162;28;20027;-79
2023/07/02 03:12:41;;;;;;;3.90;2.35;;;17.30;99.90;;;;;;4970649;28;20034;-79
2023/07/02 03:15:08;;;;;;;4.10;3.17;;;17.30;99.90;;;;;;4971091;28;20122;-77
2023/07/02 03:17:33;;;;;;;5.20;3.40;;;17.30;99.90;;;;;;4972051;28;20027;-79
2023/07/02 03:19:59;;;;;;;5.82;3.60;;;17.30;99.90;;;;;;4970705;28;20090;-79
2023/07/02 03:22:25;;;;;;;6.40;3.42;;;17.30;99.90;;;;;;4970743;28;20420;-79
2023/07/02 03:24:50;;;;;;;9.18;3.63;;;17.30;99.90;;;;;;4970283;28;20018;-80
2023/07/02 03:27:16;;;;;;;7.07;3.25;;;17.30;99.90;;;;;;4970036;28;20532;-79
2023/07/02 03:29:41;;;;;;;5.43;3.85;;;17.30;99.90;;;;;;4969926;28;20030;-79
2023/07/02 03:32:07;;;;;;;8.75;3.28;;;17.30;99.90;;;;;;4970043;28;20066;-79
2023/07/02 03:34:33;;;;;;;5.78;4.00;;;17.40;99.90;;;;;;4969836;28;20093;-80
2023/07/02 03:36:59;;;;;;;6.45;3.90;;;17.40;99.90;;;;;;4970048;28;20113;-79
2023/07/02 03:39:24;;;;;;;9.95;5.07;;;17.30;99.90;;;;;;4970522;28;20058;-79
2023/07/02 03:41:50;;;;;;;8.57;3.97;;;17.30;99.90;;;;;;4971771;28;20125;-79
2023/07/02 03:44:15;;;;;;;8.35;3.45;;;17.30;99.90;;;;;;4969513;28;20487;-77
2023/07/02 03:46:41;;;;;;;6.20;3.97;;;17.30;99.90;;;;;;4970254;28;20378;-79
2023/07/02 03:49:07;;;;;;;10.10;4.43;;;17.30;99.90;;;;;;4970001;28;20033;-80
2023/07/02 03:51:32;;;;;;;8.32;4.10;;;17.30;99.90;;;;;;4970016;28;20046;-80
2023/07/02 03:53:58;;;;;;;6.93;4.75;;;17.30;99.90;;;;;;4969580;28;20152;-80
2023/07/02 03:56:24;;;;;;;9.68;4.70;;;17.30;99.90;;;;;;4970388;28;20639;-79
2023/07/02 03:58:50;;;;;;;9.38;5.18;;;17.30;99.90;;;;;;4968849;28;20269;-80
2023/07/02 04:01:16;;;;;;;11.40;5.50;;;17.30;99.90;;;;;;4971708;28;20034;-80
2023/07/02 04:03:52;;;;;;;11.40;5.95;;;17.30;99.90;;;;;;4970419;28;20109;-80
2023/07/02 04:06:18;;;;;;;15.43;7.50;;;17.30;99.90;;;;;;4970004;28;20087;-79
2023/07/02 04:08:44;;;;;;;17.38;7.15;;;17.30;99.90;;;;;;4971347;28;20110;-80
2023/07/02 04:11:11;;;;;;;13.63;7.07;;;17.30;99.90;;;;;;4969790;28;20054;-79
2023/07/02 04:13:37;;;;;;;30.95;7.93;;;17.30;99.90;;;;;;4969712;28;20474;-80
2023/07/02 04:16:03;;;;;;;15.02;7.03;;;17.30;99.90;;;;;;4971451;28;20106;-79
2023/07/02 04:18:29;;;;;;;16.48;8.10;;;17.20;99.90;;;;;;4971171;28;20138;-79
2023/07/02 04:20:55;;;;;;;17.67;8.05;;;17.20;99.90;;;;;;4971367;28;20027;-79
2023/07/02 04:23:21;;;;;;;16.35;8.70;;;17.20;99.90;;;;;;4969612;28;20423;-79
2023/07/02 04:25:46;;;;;;;15.50;7.60;;;17.20;99.90;;;;;;4970089;28;20113;-80
2023/07/02 04:28:12;;;;;;;17.02;7.80;;;17.20;99.90;;;;;;4969594;28;20027;-79
2023/07/02 04:30:38;;;;;;;14.15;7.22;;;17.10;99.90;;;;;;4969897;28;20504;-80
2023/07/02 04:33:05;;;;;;;17.77;8.82;;;17.10;99.90;;;;;;4969583;28;20027;-80
2023/07/02 04:35:31;;;;;;;18.00;7.80;;;17.10;99.90;;;;;;4969793;28;20468;-79
2023/07/02 04:37:57;;;;;;;18.45;8.82;;;17.10;99.90;;;;;;4969901;28;20054;-79
2023/07/02 04:40:23;;;;;;;14.75;8.20;;;17.10;99.90;;;;;;4969501;28;20122;-79
2023/07/02 04:42:48;;;;;;;28.63;8.88;;;17.10;99.90;;;;;;4970749;28;20055;-79
2023/07/02 04:45:15;;;;;;;20.20;8.15;;;17.10;99.90;;;;;;4969636;28;20545;-80
2023/07/02 04:47:45;;;;;;;14.07;7.70;;;17.10;99.90;;;;;;4970901;28;20022;-79
2023/07/02 04:50:14;;;;;;;22.75;9.80;;;17.10;99.90;;;;;;4969318;28;20047;-80
2023/07/02 04:52:39;;;;;;;21.15;9.40;;;17.10;99.90;;;;;;4969647;28;20271;-80
2023/07/02 04:55:06;;;;;;;19.50;9.20;;;17.10;99.90;;;;;;4969255;28;20043;-80
2023/07/02 04:57:32;;;;;;;16.20;7.75;;;17.10;99.90;;;;;;4969412;28;20027;-79
2023/07/02 04:59:57;;;;;;;23.42;10.00;;;17.10;99.90;;;;;;4970229;28;20038;-80
2023/07/02 05:02:23;;;;;;;21.17;8.90;;;17.10;99.90;;;;;;4970787;28;20034;-79
2023/07/02 05:04:49;;;;;;;27.17;9.15;;;17.10;99.90;;;;;;4970554;28;20178;-79
2023/07/02 05:07:16;;;;;;;21.67;10.13;;;17.10;99.90;;;;;;4969221;28;20383;-79
2023/07/02 05:09:41;;;;;;;21.85;10.98;;;17.10;99.90;;;;;;4988505;28;20242;-79
2023/07/02 05:12:07;;;;;;;26.95;10.90;;;17.10;99.90;;;;;;4994640;28;20097;-79
2023/07/02 05:14:33;;;;;;;21.48;10.10;;;17.10;99.90;;;;;;4997114;28;20072;-80
2023/07/02 05:16:59;;;;;;;22.08;10.65;;;17.10;99.90;;;;;;5000721;28;20022;-79
2023/07/02 05:19:24;;;;;;;26.85;10.38;;;17.10;99.90;;;;;;4997804;28;20479;-79
2023/07/02 05:21:50;;;;;;;24.10;10.73;;;17.00;99.90;;;;;;4992211;28;20022;-79
2023/07/02 05:24:16;;;;;;;18.77;9.77;;;17.10;99.90;;;;;;4993691;28;20034;-80
2023/07/02 05:26:41;;;;;;;28.10;11.48;;;17.10;99.90;;;;;;4992052;28;20018;-80
2023/07/02 05:29:07;;;;;;;21.40;10.43;;;17.10;99.90;;;;;;4992014;28;20065;-81
2023/07/02 05:31:34;;;;;;;18.85;9.68;;;17.10;99.90;;;;;;4992281;28;20038;-78
2023/07/02 05:33:59;;;;;;;23.42;10.77;;;17.10;99.90;;;;;;4989873;28;20041;-79
2023/07/02 05:36:25;;;;;;;24.52;10.57;;;17.20;99.90;;;;;;4990331;28;20018;-80
2023/07/02 05:38:51;;;;;;;33.42;11.85;;;17.20;99.90;;;;;;4996552;28;20269;-79
2023/07/02 05:41:23;;;;;;;26.05;11.65;;;17.30;99.90;;;;;;5002900;28;20254;-77
2023/07/02 05:43:49;;;;;;;23.92;10.02;;;17.30;99.90;;;;;;5002440;28;20027;-77
2023/07/02 05:46:15;;;;;;;21.95;9.43;;;17.40;99.90;;;;;;4996101;28;20061;-77
2023/07/02 05:48:43;;;;;;;22.50;10.85;;;17.50;99.90;;;;;;4988033;28;20105;-79
2023/07/02 05:51:09;;;;;;;23.63;10.93;;;17.60;99.90;;;;;;4971465;28;20054;-78
2023/07/02 05:53:36;;;;;;;20.35;10.30;;;17.70;99.90;;;;;;4970510;28;20039;-76
2023/07/02 05:56:02;;;;;;;21.33;9.65;;;17.70;99.90;;;;;;4970538;28;20124;-77
2023/07/02 05:58:29;;;;;;;16.83;9.13;;;17.80;99.90;;;;;;4969678;28;20413;-77
2023/07/02 06:00:55;;;;;;;20.45;8.45;;;17.80;99.90;;;;;;4970092;28;20019;-77
2023/07/02 06:03:21;;;;;;;18.10;8.93;;;17.70;99.90;;;;;;4972406;28;20026;-77
2023/07/02 06:05:48;;;;;;;17.02;8.57;;;17.80;99.90;;;;;;4982676;28;20299;-80
2023/07/02 06:08:17;;;;;;;15.45;8.48;;;17.80;99.90;;;;;;4979818;28;20023;-80
2023/07/02 06:10:46;;;;;;;15.80;8.50;;;17.90;99.90;;;;;;4970986;28;20034;-79
2023/07/02 06:13:11;;;;;;;20.65;10.25;;;18.00;99.90;;;;;;4970722;28;20066;-79
2023/07/02 06:15:37;;;;;;;14.57;8.50;;;18.20;99.90;;;;;;4972450;28;20031;-78
2023/07/02 06:18:03;;;;;;;20.42;8.73;;;18.30;99.90;;;;;;4971192;28;20081;-77
2023/07/02 06:20:28;;;;;;;22.08;9.90;;;18.40;99.90;;;;;;4968538;28;20379;-78
2023/07/02 06:22:54;;;;;;;25.67;9.15;;;18.50;99.90;;;;;;4972671;28;20031;-77
2023/07/02 06:25:20;;;;;;;17.85;9.38;;;18.50;99.90;;;;;;4983467;28;20067;-78
2023/07/02 06:27:45;;;;;;;21.30;9.55;;;18.50;99.90;;;;;;4971934;28;20126;-78
2023/07/02 06:30:11;;;;;;;19.75;8.55;;;18.50;99.90;;;;;;4970990;28;20027;-79
2023/07/02 06:32:38;;;;;;;20.90;7.88;;;18.40;99.90;;;;;;4971008;28;20027;-77
2023/07/02 06:35:05;;;;;;;18.85;8.68;;;18.30;99.90;;;;;;4972156;28;20049;-80
2023/07/02 06:37:31;;;;;;;16.98;8.75;;;18.30;99.90;;;;;;4971019;28;20462;-77
2023/07/02 06:39:57;;;;;;;18.38;8.27;;;18.20;99.90;;;;;;4977099;28;20106;-76
2023/07/02 06:42:23;;;;;;;22.15;9.45;;;18.10;99.90;;;;;;4980836;28;20057;-78
2023/07/02 06:44:49;;;;;;;21.67;8.02;;;18.10;99.90;;;;;;4978618;28;20030;-78
2023/07/02 06:47:15;;;;;;;19.33;8.75;;;18.00;99.90;;;;;;4968739;28;20384;-77
2023/07/02 06:49:40;;;;;;;19.52;8.88;;;17.90;99.90;;;;;;4971243;28;20027;-79
2023/07/02 06:52:06;;;;;;;17.75;8.93;;;17.70;99.90;;;;;;4978770;28;20030;-77
2023/07/02 06:54:32;;;;;;;19.70;9.68;;;17.80;99.90;;;;;;4978507;28;20039;-77
2023/07/02 06:56:57;;;;;;;23.85;11.15;;;17.80;99.90;;;;;;4972863;28;20054;-79
2023/07/02 06:59:24;;;;;;;24.77;11.45;;;17.60;99.90;;;;;;4978411;28;20039;-78
2023/07/02 07:01:50;;;;;;;25.95;12.20;;;17.40;99.90;;;;;;4972599;28;20026;-78
2023/07/02 07:04:15;;;;;;;31.33;12.05;;;17.30;99.90;;;;;;4983626;28;20037;-79
2023/07/02 07:06:42;;;;;;;27.23;11.73;;;17.20;99.90;;;;;;4982051;28;20014;-80
2023/07/02 07:09:07;;;;;;;32.10;13.43;;;17.00;99.90;;;;;;4982953;28;20034;-79
2023/07/02 07:11:33;;;;;;;28.23;12.18;;;16.90;99.90;;;;;;4981878;28;20222;-79
2023/07/02 07:13:59;;;;;;;24.63;12.48;;;16.70;99.90;;;;;;4987989;28;20338;-79
2023/07/02 07:16:24;;;;;;;25.20;11.93;;;16.50;99.90;;;;;;4991970;28;20018;-76
2023/07/02 07:18:50;;;;;;;33.28;12.68;;;16.40;99.90;;;;;;4986913;28;20031;-78
2023/07/02 07:21:16;;;;;;;32.20;13.30;;;16.30;99.90;;;;;;4981548;28;20069;-77
2023/07/02 07:23:42;;;;;;;29.27;13.23;;;16.30;99.90;;;;;;4984639;28;20019;-76
2023/07/02 07:26:08;;;;;;;23.05;13.02;;;16.30;99.90;;;;;;4982017;28;20323;-79
2023/07/02 07:28:33;;;;;;;27.20;12.90;;;16.30;99.90;;;;;;4987085;28;20094;-80
2023/07/02 07:30:59;;;;;;;28.73;12.65;;;16.40;99.90;;;;;;4993371;28;20026;-80
2023/07/02 07:33:25;;;;;;;24.58;12.68;;;16.50;99.90;;;;;;4986992;28;20042;-80
2023/07/02 07:35:50;;;;;;;25.88;12.75;;;16.50;99.90;;;;;;4990510;28;20038;-80
2023/07/02 07:38:16;;;;;;;29.42;13.25;;;16.60;99.90;;;;;;4985711;28;20027;-81
2023/07/02 07:40:45;;;;;;;30.40;13.73;;;16.70;99.90;;;;;;4984878;28;20231;-79
2023/07/02 07:43:10;;;;;;;31.50;12.67;;;16.90;99.90;;;;;;4981735;28;20090;-79
2023/07/02 07:45:38;;;;;;;28.92;12.55;;;17.10;99.90;;;;;;4983529;28;20025;-79
2023/07/02 07:48:23;;;;;;;29.33;11.45;;;17.40;99.90;;;;;;4984998;28;20022;-79
2023/07/02 07:50:49;;;;;;;26.30;12.95;;;17.90;99.90;;;;;;4981299;28;20042;-79
2023/07/02 07:53:14;;;;;;;27.23;12.82;;;18.10;99.90;;;;;;4987250;28;20022;-79
2023/07/02 07:55:40;;;;;;;27.15;12.73;;;18.30;99.90;;;;;;4982472;28;20101;-82
2023/07/02 07:58:08;;;;;;;26.05;13.88;;;18.60;99.90;;;;;;4984081;28;20049;-80
2023/07/02 08:00:34;;;;;;;32.78;12.63;;;19.20;99.90;;;;;;4978917;28;20053;-79
2023/07/02 08:03:04;;;;;;;26.70;12.15;;;18.60;99.90;;;;;;4983234;28;20101;-79
2023/07/02 08:05:32;;;;;;;31.52;13.27;;;18.40;99.90;;;;;;4987762;28;20075;-79
2023/07/02 08:07:58;;;;;;;34.55;14.30;;;18.70;99.90;;;;;;4978696;28;20058;-80
2023/07/02 08:10:25;;;;;;;29.00;13.05;;;19.10;99.90;;;;;;4966301;28;20054;-88
2023/07/02 08:12:52;;;;;;;29.25;12.50;;;19.70;99.90;;;;;;4979184;28;20270;-86
2023/07/02 08:15:18;;;;;;;27.20;13.43;;;20.60;99.90;;;;;;4979295;28;20330;-87
2023/07/02 08:17:43;;;;;;;27.95;13.02;;;21.00;99.90;;;;;;4979580;28;20229;-85
2023/07/02 08:20:10;;;;;;;24.85;11.55;;;20.80;99.90;;;;;;4979975;28;20278;-89
2023/07/02 08:22:40;;;;;;;20.00;10.75;;;20.80;99.90;;;;;;4991746;28;20092;-85
2023/07/02 08:25:06;;;;;;;25.75;12.05;;;20.90;99.90;;;;;;4998689;28;20015;-86
2023/07/02 08:27:35;;;;;;;28.30;11.32;;;20.70;99.90;;;;;;4994752;28;20031;-87
2023/07/02 08:30:04;;;;;;;27.30;12.98;;;20.70;99.90;;;;;;4986338;28;20042;-84
2023/07/02 08:36:00;;;;;;;26.27;13.30;;;20.50;99.90;;;;;;5400952;23;20105;-89
2023/07/02 08:38:39;;;;;;;49.63;13.88;;;20.70;99.90;;;;;;4988878;28;20015;-84
2023/07/02 08:41:05;;;;;;;26.08;12.95;;;20.60;99.90;;;;;;4989322;28;20027;-82
2023/07/02 08:43:30;;;;;;;28.52;13.35;;;20.60;99.90;;;;;;4979753;28;20037;-83
2023/07/02 08:45:56;;;;;;;27.27;13.00;;;20.40;99.90;;;;;;4994522;28;20023;-83
2023/07/02 08:51:16;;;;;;;33.03;14.38;;;20.30;99.90;;;;;;4985948;28;20062;-86
2023/07/02 08:53:42;;;;;;;27.15;11.77;;;21.00;99.90;;;;;;4983336;28;20223;-82
2023/07/02 08:56:07;;;;;;;33.42;13.77;;;21.40;99.90;;;;;;4983794;28;20085;-84
2023/07/02 08:58:33;;;;;;;26.65;13.13;;;21.00;99.90;;;;;;4983457;28;20058;-86
2023/07/02 09:01:13;;;;;;;27.08;12.90;;;20.80;99.90;;;;;;4983362;28;20342;-86
2023/07/02 09:03:41;;;;;;;21.98;11.68;;;20.90;99.90;;;;;;4992603;28;20022;-89
2023/07/02 09:06:11;;;;;;;26.05;13.52;;;20.70;99.90;;;;;;4991522;28;20030;-86
2023/07/02 09:08:38;;;;;;;28.90;13.15;;;20.70;99.90;;;;;;4981472;28;20283;-77
2023/07/02 09:11:12;;;;;;;28.63;12.23;;;20.60;99.90;;;;;;4982471;28;20038;-84
2023/07/02 09:13:45;;;;;;;22.85;11.10;;;20.70;99.90;;;;;;4980980;28;20374;-77
2023/07/02 09:16:31;;;;;;;21.48;10.63;;;20.70;99.90;;;;;;4979955;28;20382;-78
2023/07/02 09:19:04;;;;;;;30.20;12.45;;;21.10;99.90;;;;;;4976084;28;20354;-79
2023/07/02 09:21:45;;;;;;;26.05;12.50;;;21.70;99.90;;;;;;4982127;28;20046;-78
2023/07/02 09:24:20;;;;;;;27.40;12.25;;;22.70;99.90;;;;;;4975320;28;20471;-87
2023/07/02 09:26:49;;;;;;;32.60;12.82;;;22.80;99.90;;;;;;4984192;28;20031;-86
2023/07/02 09:29:24;;;;;;;30.15;13.23;;;22.60;99.90;;;;;;4982528;28;20019;-84
2023/07/02 09:31:50;;;;;;;24.45;11.82;;;22.60;99.90;;;;;;4979264;28;20049;-84
2023/07/02 09:34:16;;;;;;;25.40;12.20;;;22.50;99.90;;;;;;4981732;28;20043;-88
2023/07/02 09:36:43;;;;;;;25.65;11.60;;;23.00;99.00;;;;;;4984837;28;20057;-83
2023/07/02 09:39:14;;;;;;;18.33;10.88;;;22.70;99.60;;;;;;4983157;28;20118;-85
2023/07/02 09:41:44;;;;;;;21.80;10.95;;;22.50;99.90;;;;;;4982422;28;20065;-83
2023/07/02 09:44:10;;;;;;;25.08;12.70;;;21.90;99.20;;;;;;4982750;28;20025;-83
2023/07/02 09:46:47;;;;;;;40.22;12.93;;;21.80;99.90;;;;;;4982579;28;20034;-86
2023/07/02 09:49:16;;;;;;;24.90;11.05;;;21.60;99.80;;;;;;4983054;28;20056;-85
2023/07/02 09:51:43;;;;;;;28.63;11.45;;;21.60;99.90;;;;;;4984056;28;20034;-88
2023/07/02 09:54:09;;;;;;;23.10;11.38;;;21.70;99.90;;;;;;4983877;28;20030;-87
2023/07/02 09:56:35;;;;;;;23.42;13.13;;;22.10;99.90;;;;;;4982405;28;20046;-86
2023/07/02 09:59:03;;;;;;;26.40;12.10;;;22.20;99.80;;;;;;4986737;28;20358;-81
2023/07/02 10:01:29;;;;;;;25.08;11.80;;;21.80;99.90;;;;;;4984115;28;20059;-85
2023/07/02 10:03:54;;;;;;;33.60;14.00;;;21.90;99.90;;;;;;4992093;28;20110;-87
2023/07/02 10:06:20;;;;;;;23.88;12.13;;;22.60;99.90;;;;;;4986520;28;20592;-83
2023/07/02 10:08:56;;;;;;;30.85;12.85;;;23.40;97.70;;;;;;4973879;28;20023;-78
2023/07/02 10:11:33;;;;;;;25.33;10.60;;;23.80;97.50;;;;;;4970855;28;20042;-82
2023/07/02 10:13:59;;;;;;;25.48;12.35;;;24.30;96.50;;;;;;4962318;28;20039;-81
2023/07/02 10:16:27;;;;;;;22.42;11.68;;;24.50;95.20;;;;;;4993463;28;20098;-82
2023/07/02 10:18:53;;;;;;;23.27;11.02;;;23.60;95.00;;;;;;4993485;28;20026;-79
2023/07/02 10:21:20;;;;;;;23.58;12.05;;;22.80;95.50;;;;;;4983230;28;20027;-79
2023/07/02 10:23:46;;;;;;;29.27;12.82;;;21.80;97.70;;;;;;4968446;28;20029;-81
2023/07/02 10:26:16;;;;;;;19.70;10.80;;;21.70;99.00;;;;;;4968501;28;20027;-77
2023/07/02 10:28:42;;;;;;;18.33;8.90;;;22.00;98.90;;;;;;4954898;28;20023;-77
2023/07/02 10:31:21;;;;;;;21.88;9.88;;;21.90;99.20;;;;;;4958444;28;20045;-77
2023/07/02 10:33:47;;;;;;;22.02;11.38;;;22.00;99.90;;;;;;4971315;28;20436;-77
2023/07/02 10:36:20;;;;;;;23.67;8.90;;;22.50;99.00;;;;;;4969380;28;20495;-78
2023/07/02 10:38:47;;;;;;;18.23;8.68;;;22.90;98.10;;;;;;4972879;28;20022;-78
2023/07/02 10:41:22;;;;;;;20.73;9.80;;;23.40;97.10;;;;;;4973084;28;20113;-76
2023/07/02 10:43:48;;;;;;;19.77;10.40;;;23.00;97.10;;;;;;4976616;28;20026;-80
2023/07/02 10:46:21;;;;;;;17.92;9.55;;;23.40;98.10;;;;;;4980283;28;20086;-80
2023/07/02 10:48:57;;;;;;;15.32;8.52;;;24.10;96.80;;;;;;4973450;28;20125;-77
2023/07/02 10:51:23;;;;;;;20.00;8.98;;;23.30;95.60;;;;;;4975515;28;20086;-84
2023/07/02 10:54:00;;;;;;;17.80;9.02;;;22.90;96.90;;;;;;4974693;28;20043;-85
2023/07/02 10:56:29;;;;;;;15.07;8.75;;;23.00;95.60;;;;;;4975916;28;20031;-82
2023/07/02 10:58:55;;;;;;;18.67;9.02;;;23.40;95.00;;;;;;4980226;28;20030;-82
2023/07/02 11:01:29;;;;;;;16.25;7.93;;;23.30;95.30;;;;;;4982918;28;20050;-88
2023/07/02 11:04:02;;;;;;;20.52;9.98;;;23.10;95.60;;;;;;4991525;28;20022;-77
2023/07/02 11:06:28;;;;;;;21.98;9.65;;;23.20;95.80;;;;;;4979184;28;20081;-85
2023/07/02 11:08:57;;;;;;;19.55;9.45;;;23.30;95.50;;;;;;4972106;28;20039;-84
2023/07/02 11:11:23;;;;;;;21.02;10.25;;;23.70;97.00;;;;;;4972574;28;20085;-82
2023/07/02 11:13:50;;;;;;;19.48;10.18;;;23.70;95.50;;;;;;4979433;28;20124;-78
2023/07/02 11:16:26;;;;;;;22.08;9.80;;;24.10;93.90;;;;;;4971759;28;20026;-80
2023/07/02 11:19:10;;;;;;;21.73;10.15;;;24.60;93.80;;;;;;4969882;28;20031;-77
2023/07/02 11:21:37;;;;;;;17.42;9.10;;;24.30;93.10;;;;;;4968268;28;20037;-79
2023/07/02 11:24:08;;;;;;;19.55;8.75;;;24.10;93.60;;;;;;4968867;28;20077;-78
2023/07/02 11:26:38;;;;;;;18.70;9.10;;;23.40;94.50;;;;;;4978492;28;20199;-77
2023/07/02 11:29:03;;;;;;;14.75;8.25;;;23.00;94.30;;;;;;4972790;28;20015;-77
2023/07/02 11:31:29;;;;;;;17.90;7.50;;;22.60;96.40;;;;;;4968356;28;20031;-78
2023/07/02 11:33:55;;;;;;;18.00;9.25;;;23.40;95.90;;;;;;4964951;28;20243;-78
2023/07/02 11:36:24;;;;;;;16.10;7.88;;;24.30;96.20;;;;;;4964067;28;20488;-78
2023/07/02 11:38:51;;;;;;;15.50;8.18;;;24.80;93.20;;;;;;4963457;28;20320;-78
2023/07/02 11:41:18;;;;;;;15.52;8.10;;;24.90;92.70;;;;;;4963894;28;20042;-78
2023/07/02 11:43:44;;;;;;;15.00;7.85;;;24.70;92.70;;;;;;4965395;28;20519;-77
2023/07/02 11:46:10;;;;;;;16.38;7.82;;;24.00;92.90;;;;;;4965911;28;20500;-78
2023/07/02 11:48:35;;;;;;;20.83;8.77;;;23.70;93.10;;;;;;4965024;28;20042;-77
2023/07/02 11:51:01;;;;;;;17.77;8.52;;;23.70;93.40;;;;;;4966341;28;20350;-78
2023/07/02 11:53:27;;;;;;;17.35;7.90;;;24.00;92.60;;;;;;4966533;28;20030;-78
2023/07/02 11:55:52;;;;;;;14.07;8.02;;;23.70;93.00;;;;;;4966946;28;20019;-78
2023/07/02 11:58:18;;;;;;;11.52;7.18;;;23.70;93.10;;;;;;4966364;28;20478;-79
2023/07/02 12:00:43;;;;;;;13.60;7.60;;;23.50;92.60;;;;;;4966600;28;20034;-78
2023/07/02 12:03:10;;;;;;;17.38;7.40;;;23.30;94.00;;;;;;4971248;28;20113;-78
2023/07/02 12:05:35;;;;;;;13.32;6.88;;;23.00;94.10;;;;;;4987328;28;20109;-78
2023/07/02 12:08:02;;;;;;;16.77;7.47;;;23.50;95.30;;;;;;4970375;28;20118;-77
2023/07/02 12:10:27;;;;;;;12.45;6.03;;;23.90;93.60;;;;;;4969490;28;20030;-77
2023/07/02 12:12:53;;;;;;;9.85;5.72;;;24.10;92.40;;;;;;4966778;28;20027;-77
2023/07/02 12:15:19;;;;;;;12.05;6.35;;;24.20;91.40;;;;;;4968114;28;20125;-77
2023/07/02 12:17:44;;;;;;;9.73;5.85;;;24.80;91.50;;;;;;4969302;28;20182;-77
2023/07/02 12:20:10;;;;;;;10.20;5.53;;;24.90;92.50;;;;;;4969046;28;20027;-77
2023/07/02 12:22:36;;;;;;;11.68;5.85;;;25.00;91.10;;;;;;4968274;28;20340;-78
2023/07/02 12:25:02;;;;;;;10.77;6.40;;;25.30;91.90;;;;;;4969469;28;20355;-77
2023/07/02 12:27:27;;;;;;;11.82;6.10;;;25.60;89.60;;;;;;4967684;28;20027;-77
2023/07/02 12:29:53;;;;;;;8.20;6.07;;;25.10;88.80;;;;;;4967750;28;20022;-77
2023/07/02 12:32:19;;;;;;;14.70;6.82;;;25.40;89.70;;;;;;4967604;28;20123;-78
2023/07/02 12:34:44;;;;;;;12.30;6.63;;;25.50;89.30;;;;;;4967593;28;20150;-78
2023/07/02 12:37:10;;;;;;;16.15;7.53;;;26.30;89.40;;;;;;4967941;28;20506;-78
2023/07/02 12:39:35;;;;;;;13.73;7.45;;;27.00;88.80;;;;;;4967861;28;20035;-78
2023/07/02 12:42:01;;;;;;;18.30;8.90;;;27.80;83.00;;;;;;4967995;28;20022;-78